createdAt,value
2019-05-10T00:01:32.603Z,21.25
2019-05-10T00:04:06.307Z,15.00
2019-05-10T00:06:40.030Z,15.00
2019-05-10T00:09:13.749Z,18.25
2019-05-10T00:11:49.387Z,17.50
2019-05-10T00:14:22.881Z,15.20
2019-05-10T00:16:56.583Z,18.75
2019-05-10T00:19:30.295Z,17.75
2019-05-10T00:22:04.005Z,22.50
2019-05-10T00:24:37.738Z,17.80
2019-05-10T00:27:11.457Z,22.25
2019-05-10T00:29:45.196Z,21.50
2019-05-10T00:32:18.912Z,25.40
2019-05-10T00:34:52.613Z,24.00
2019-05-10T00:37:26.332Z,27.00
2019-05-10T00:40:00.245Z,22.00
2019-05-10T00:42:33.955Z,24.40
2019-05-10T00:45:07.655Z,18.25
2019-05-10T00:47:41.847Z,26.40
2019-05-10T00:50:15.574Z,22.00
2019-05-10T00:52:49.287Z,27.25
2019-05-10T00:55:23.004Z,25.80
2019-05-10T00:57:56.707Z,29.25
2019-05-10T01:00:30.423Z,25.50
2019-05-10T01:03:04.136Z,25.75
2019-05-10T01:05:37.853Z,33.50
2019-05-10T01:08:11.584Z,24.50
2019-05-10T01:10:45.284Z,27.00
2019-05-10T01:13:18.987Z,31.50
2019-05-10T01:15:52.796Z,27.50
2019-05-10T01:18:26.500Z,32.00
2019-05-10T01:21:00.231Z,30.60
2019-05-10T01:23:33.940Z,33.50
2019-05-10T01:26:07.657Z,31.00
2019-05-10T01:28:41.396Z,33.40
2019-05-10T01:31:15.100Z,35.75
2019-05-10T01:33:49.399Z,37.50
2019-05-10T01:36:23.272Z,36.75
2019-05-10T01:38:56.986Z,32.25
2019-05-10T01:41:30.684Z,37.00
2019-05-10T01:44:04.418Z,36.80
2019-05-10T01:46:38.136Z,35.00
2019-05-10T01:49:11.846Z,37.75
2019-05-10T01:51:45.947Z,38.50
2019-05-10T01:54:19.649Z,44.75
2019-05-10T01:56:53.373Z,40.20
2019-05-10T01:59:27.085Z,43.50
2019-05-10T02:02:00.782Z,39.50
2019-05-10T02:04:34.969Z,41.00
2019-05-10T02:07:08.703Z,39.25
2019-05-10T02:09:42.563Z,40.50
2019-05-10T02:12:16.279Z,40.25
2019-05-10T02:14:49.986Z,32.75
2019-05-10T02:17:23.942Z,37.00
2019-05-10T02:19:57.661Z,35.50
2019-05-10T02:22:31.379Z,36.50
2019-05-10T02:25:05.661Z,38.00
2019-05-10T02:27:39.387Z,37.20
2019-05-10T02:30:13.582Z,37.40
2019-05-10T02:32:47.298Z,38.25
2019-05-10T02:35:21.005Z,39.75
2019-05-10T02:37:54.712Z,40.00
2019-05-10T02:40:28.455Z,40.20
2019-05-10T02:43:02.169Z,39.25
2019-05-10T02:45:35.904Z,38.25
2019-05-10T02:48:09.619Z,41.00
2019-05-10T02:50:43.381Z,42.00
2019-05-10T02:53:17.080Z,41.75
2019-05-10T02:55:51.092Z,44.75
2019-05-10T02:58:24.879Z,45.25
2019-05-10T03:00:59.952Z,41.00
2019-05-10T03:03:33.665Z,41.50
2019-05-10T03:06:07.364Z,40.75
2019-05-10T03:08:46.610Z,36.00
2019-05-10T03:11:20.401Z,39.75
2019-05-10T03:13:54.099Z,42.50
2019-05-10T03:16:27.811Z,40.50
2019-05-10T03:19:01.526Z,33.00
2019-05-10T03:21:35.774Z,38.75
2019-05-10T03:24:09.493Z,37.00
2019-05-10T03:26:51.069Z,36.75
2019-05-10T03:29:18.612Z,36.17
2019-05-10T03:31:52.316Z,37.50
2019-05-10T03:34:26.041Z,37.25
2019-05-10T03:36:59.779Z,42.00
2019-05-10T03:39:33.520Z,40.60
2019-05-10T03:42:07.215Z,34.50
2019-05-10T03:44:40.938Z,37.00
2019-05-10T03:47:14.642Z,39.20
2019-05-10T03:49:48.351Z,35.00
2019-05-10T03:52:22.104Z,37.50
2019-05-10T03:54:55.879Z,38.75
2019-05-10T03:57:29.612Z,36.80
2019-05-10T04:00:06.222Z,32.50
2019-05-10T04:02:39.971Z,36.80
2019-05-10T04:05:13.872Z,37.25
2019-05-10T04:07:47.650Z,34.25
2019-05-10T04:10:21.446Z,30.00
2019-05-10T04:12:55.148Z,30.75
2019-05-10T04:15:28.861Z,30.50
2019-05-10T04:18:02.581Z,32.50
2019-05-10T04:20:36.292Z,31.25
2019-05-10T04:23:10.041Z,26.00
2019-05-10T04:25:43.759Z,37.25
2019-05-10T04:28:17.452Z,31.00
2019-05-10T04:30:51.159Z,30.00
2019-05-10T04:33:24.901Z,32.00
2019-05-10T04:35:58.599Z,28.75
2019-05-10T04:38:32.321Z,36.25
2019-05-10T04:41:06.024Z,31.00
2019-05-10T04:43:39.742Z,34.25
2019-05-10T04:46:13.456Z,29.00
2019-05-10T04:48:47.177Z,30.00
2019-05-10T04:51:20.893Z,31.25
2019-05-10T04:53:54.598Z,28.50
2019-05-10T04:56:28.307Z,28.50
2019-05-10T04:59:02.040Z,25.00
2019-05-10T05:01:35.760Z,30.25
2019-05-10T05:04:09.482Z,28.75
2019-05-10T05:06:43.192Z,30.20
2019-05-10T05:09:16.912Z,28.50
2019-05-10T05:11:50.635Z,30.00
2019-05-10T05:14:24.348Z,30.25
2019-05-10T05:16:58.114Z,32.00
2019-05-10T05:19:32.041Z,27.50
2019-05-10T05:22:05.802Z,33.75
2019-05-10T05:24:39.520Z,32.25
2019-05-10T05:27:17.937Z,35.00
2019-05-10T05:29:51.667Z,32.00
2019-05-10T05:32:25.382Z,33.00
2019-05-10T05:34:59.086Z,25.50
2019-05-10T05:37:32.802Z,33.25
2019-05-10T05:40:07.248Z,35.75
2019-05-10T05:42:40.980Z,35.75
2019-05-10T05:45:14.756Z,26.25
2019-05-10T05:47:51.016Z,35.50
2019-05-10T05:50:24.707Z,33.25
2019-05-10T05:52:58.428Z,30.00
2019-05-10T05:55:32.346Z,28.25
2019-05-10T05:58:08.676Z,30.00
2019-05-10T06:00:44.687Z,34.25
2019-05-10T06:03:19.403Z,34.75
2019-05-10T06:05:52.378Z,30.20
2019-05-10T06:08:26.101Z,32.25
2019-05-10T06:11:00.249Z,27.25
2019-05-10T06:13:34.106Z,31.75
2019-05-10T06:16:12.781Z,25.00
2019-05-10T06:18:47.383Z,22.50
2019-05-10T06:21:24.822Z,19.50
2019-05-10T06:23:54.062Z,24.00
2019-05-10T06:26:28.793Z,23.00
2019-05-10T06:29:04.546Z,18.00
2019-05-10T06:31:38.087Z,18.50
2019-05-10T06:34:11.830Z,23.25
2019-05-10T06:36:45.552Z,19.60
2019-05-10T06:39:19.244Z,20.25
2019-05-10T06:41:55.982Z,19.25
2019-05-10T06:44:31.250Z,21.50
2019-05-10T06:47:08.247Z,15.75
2019-05-10T06:49:41.032Z,14.00
2019-05-10T06:52:16.358Z,17.50
2019-05-10T06:54:50.423Z,14.00
2019-05-10T06:57:24.143Z,12.50
2019-05-10T07:00:06.224Z,12.00
2019-05-10T07:02:33.263Z,13.20
2019-05-10T07:05:06.972Z,14.00
2019-05-10T07:07:44.710Z,10.25
2019-05-10T07:10:19.491Z,13.25
2019-05-10T07:12:56.996Z,11.00
2019-05-10T07:15:26.930Z,15.00
2019-05-10T07:18:00.690Z,14.50
2019-05-10T07:20:34.448Z,18.00
2019-05-10T07:23:08.168Z,11.00
2019-05-10T07:25:44.026Z,16.50
2019-05-10T07:28:17.823Z,14.00
2019-05-10T07:30:51.650Z,14.00
2019-05-10T07:33:25.366Z,16.40
2019-05-10T07:35:59.075Z,14.00
2019-05-10T07:38:32.929Z,13.75
2019-05-10T07:41:06.786Z,14.00
2019-05-10T07:43:40.754Z,19.50
2019-05-10T07:46:14.463Z,14.60
2019-05-10T07:48:53.518Z,18.00
2019-05-10T07:51:28.845Z,15.20
2019-05-10T07:54:04.497Z,15.00
2019-05-10T07:56:38.931Z,15.80
2019-05-10T07:59:09.849Z,19.00
2019-05-10T08:01:43.581Z,21.20
2019-05-10T08:04:25.232Z,18.75
2019-05-10T08:06:52.691Z,17.20
2019-05-10T08:09:26.424Z,17.00
2019-05-10T08:12:04.877Z,17.50
2019-05-10T08:14:35.544Z,18.00
2019-05-10T08:17:09.259Z,15.25
2019-05-10T08:19:42.977Z,16.75
2019-05-10T08:22:16.691Z,16.80
2019-05-10T08:24:52.652Z,18.00
2019-05-10T08:27:25.814Z,16.00
2019-05-10T08:30:17.802Z,16.00
2019-05-10T08:32:35.150Z,16.00
2019-05-10T08:35:15.956Z,18.50
2019-05-10T08:37:44.452Z,15.00
2019-05-10T08:40:19.833Z,16.00
2019-05-10T08:43:03.199Z,18.40
2019-05-10T08:45:28.993Z,17.00
2019-05-10T08:48:06.920Z,15.00
2019-05-10T08:50:49.687Z,15.25
2019-05-10T08:53:16.422Z,16.20
2019-05-10T08:55:49.300Z,14.50
2019-05-10T08:58:31.394Z,14.25
2019-05-10T09:01:12.123Z,15.00
2019-05-10T09:03:33.855Z,17.75
2019-05-10T09:06:12.020Z,15.40
2019-05-10T09:08:43.318Z,13.00
2019-05-10T09:11:17.107Z,10.20
2019-05-10T09:13:53.168Z,11.40
2019-05-10T09:16:29.097Z,12.25
2019-05-10T09:19:02.579Z,12.80
2019-05-10T09:21:40.956Z,11.75
2019-05-10T09:24:12.935Z,12.80
2019-05-10T09:26:51.615Z,10.20
2019-05-10T09:29:22.078Z,10.00
2019-05-10T09:31:55.799Z,13.40
2019-05-10T09:34:29.523Z,11.50
2019-05-10T09:37:08.216Z,14.75
2019-05-10T09:39:38.615Z,13.60
2019-05-10T09:42:24.963Z,11.60
2019-05-10T09:44:48.322Z,15.75
2019-05-10T09:47:22.270Z,15.50
2019-05-10T09:49:58.747Z,11.50
2019-05-10T09:52:31.438Z,14.50
2019-05-10T09:55:12.470Z,12.00
2019-05-10T09:57:41.045Z,13.00
2019-05-10T10:00:17.386Z,13.80
2019-05-10T10:02:56.402Z,14.00
2019-05-10T10:05:25.736Z,15.25
2019-05-10T10:08:03.575Z,12.25
2019-05-10T10:10:39.153Z,12.00
2019-05-10T10:13:33.983Z,11.50
2019-05-10T10:15:53.065Z,11.75
2019-05-10T10:18:28.757Z,12.00
2019-05-10T10:21:03.265Z,11.50
2019-05-10T10:23:37.722Z,7.20
2019-05-10T10:26:12.564Z,10.00
2019-05-10T10:28:49.729Z,11.00
2019-05-10T10:31:29.555Z,9.00
2019-05-10T10:34:00.343Z,10.75
2019-05-10T10:36:33.263Z,11.75
2019-05-10T10:39:07.569Z,13.25
2019-05-10T10:41:41.323Z,11.00
2019-05-10T10:44:15.052Z,14.60
2019-05-10T10:46:48.743Z,14.00
2019-05-10T10:49:23.061Z,15.00
2019-05-10T10:51:57.871Z,13.25
2019-05-10T10:54:36.478Z,12.25
2019-05-10T10:57:08.057Z,12.75
2019-05-10T10:59:41.914Z,9.75
2019-05-10T11:02:31.369Z,11.00
2019-05-10T11:04:51.030Z,9.50
2019-05-10T11:07:24.723Z,10.00
2019-05-10T11:10:08.151Z,11.00
2019-05-10T11:12:33.838Z,8.50
2019-05-10T11:15:07.547Z,11.00
2019-05-10T11:17:41.254Z,10.40
2019-05-10T11:20:14.968Z,10.50
2019-05-10T11:22:51.717Z,9.25
2019-05-10T11:25:24.084Z,9.25
2019-05-10T11:27:59.216Z,9.00
2019-05-10T11:30:33.198Z,8.40
2019-05-10T11:33:15.486Z,8.25
2019-05-10T11:35:42.282Z,9.60
2019-05-10T11:38:16.332Z,9.00
2019-05-10T11:40:50.196Z,10.00
2019-05-10T11:43:27.049Z,8.50
2019-05-10T11:45:59.374Z,8.80
2019-05-10T11:48:37.394Z,11.00
2019-05-10T11:51:12.281Z,8.00
2019-05-10T11:53:48.901Z,9.00
2019-05-10T11:56:25.042Z,10.00
2019-05-10T11:58:55.537Z,11.00
2019-05-10T12:01:29.495Z,7.50
2019-05-10T12:04:05.149Z,8.00
2019-05-10T12:06:41.367Z,10.20
2019-05-10T12:09:14.005Z,7.75
2019-05-10T12:11:56.621Z,8.00
2019-05-10T12:14:23.136Z,7.25
2019-05-10T12:16:56.880Z,8.50
2019-05-10T12:19:36.891Z,6.40
2019-05-10T12:22:05.985Z,9.25
2019-05-10T12:24:54.003Z,8.00
2019-05-10T12:27:25.402Z,9.50
2019-05-10T12:29:55.442Z,7.80
2019-05-10T12:32:26.967Z,6.50
2019-05-10T12:35:01.565Z,7.50
2019-05-10T12:37:39.412Z,7.00
2019-05-10T12:40:14.864Z,7.25
2019-05-10T12:42:47.140Z,8.00
2019-05-10T12:45:23.364Z,6.75
2019-05-10T12:47:56.572Z,7.00
2019-05-10T12:50:30.274Z,6.25
2019-05-10T12:53:14.314Z,7.00
2019-05-10T12:55:39.393Z,6.50
2019-05-10T12:58:13.896Z,8.00
2019-05-10T13:00:52.496Z,8.00
2019-05-10T13:03:25.260Z,7.00
2019-05-10T13:05:58.358Z,8.00
2019-05-10T13:08:32.054Z,9.00
2019-05-10T13:11:05.744Z,8.80
2019-05-10T13:13:39.461Z,9.00
2019-05-10T13:16:13.186Z,10.50
2019-05-10T13:18:51.819Z,9.00
2019-05-10T13:21:23.174Z,10.00
2019-05-10T13:23:57.041Z,9.50
2019-05-10T13:26:30.754Z,11.20
2019-05-10T13:29:08.270Z,8.00
2019-05-10T13:31:44.079Z,12.00
2019-05-10T13:34:15.282Z,10.25
2019-05-10T13:36:49.005Z,10.50
2019-05-10T13:39:25.537Z,10.80
2019-05-10T13:42:03.172Z,9.50
2019-05-10T13:44:37.009Z,8.50
2019-05-10T13:47:09.013Z,9.00
2019-05-10T13:49:42.722Z,9.80
2019-05-10T13:52:16.628Z,6.00
2019-05-10T13:54:50.320Z,8.00
2019-05-10T13:57:24.197Z,7.25
2019-05-10T13:59:57.889Z,8.60
2019-05-10T14:02:34.353Z,8.00
2019-05-10T14:05:11.797Z,7.60
2019-05-10T14:07:50.329Z,7.00
2019-05-10T14:10:22.796Z,8.00
2019-05-10T14:12:55.922Z,6.75
2019-05-10T14:15:28.653Z,8.00
2019-05-10T14:18:02.361Z,8.50
2019-05-10T14:20:36.067Z,7.00
2019-05-10T14:23:09.829Z,7.75
2019-05-10T14:25:43.535Z,7.75
2019-05-10T14:28:17.466Z,10.40
2019-05-10T14:30:57.047Z,7.00
2019-05-10T14:33:26.663Z,7.00
2019-05-10T14:36:02.766Z,9.50
2019-05-10T14:38:35.856Z,8.25
2019-05-10T14:41:11.617Z,8.50
2019-05-10T14:43:44.987Z,10.00
2019-05-10T14:46:18.696Z,9.00
2019-05-10T14:48:52.398Z,7.75
2019-05-10T14:51:40.376Z,7.60
2019-05-10T14:54:06.457Z,8.75
2019-05-10T14:56:36.910Z,6.50
2019-05-10T14:59:10.614Z,8.25
2019-05-10T15:01:45.513Z,8.60
2019-05-10T15:04:43.838Z,7.50
2019-05-10T15:06:54.902Z,8.00
2019-05-10T15:09:28.605Z,7.25
2019-05-10T15:12:02.310Z,8.00
2019-05-10T15:14:36.030Z,7.25
2019-05-10T15:17:09.730Z,7.25
2019-05-10T15:19:56.519Z,8.80
2019-05-10T15:22:22.984Z,8.00
2019-05-10T15:24:54.314Z,7.00
2019-05-10T15:27:28.139Z,5.25
2019-05-10T15:30:05.155Z,9.00
2019-05-10T15:32:37.638Z,7.00
2019-05-10T15:35:11.535Z,8.00
2019-05-10T15:37:48.301Z,8.00
2019-05-10T15:40:21.037Z,8.50
2019-05-10T15:42:56.507Z,8.00
2019-05-10T15:45:30.450Z,8.00
2019-05-10T15:48:04.613Z,8.75
2019-05-10T15:50:41.225Z,8.00
2019-05-10T15:53:19.566Z,9.00
2019-05-10T15:55:52.335Z,9.00
2019-05-10T15:58:30.576Z,7.75
2019-05-10T16:01:01.700Z,8.25
2019-05-10T16:03:40.149Z,8.20
2019-05-10T16:06:15.680Z,9.00
2019-05-10T16:08:49.599Z,9.20
2019-05-10T16:11:25.169Z,11.00
2019-05-10T16:14:00.114Z,9.50
2019-05-10T16:16:37.248Z,8.25
2019-05-10T16:19:12.934Z,8.50
2019-05-10T16:21:46.553Z,10.25
2019-05-10T16:24:26.146Z,12.00
2019-05-10T16:27:00.007Z,9.00
2019-05-10T16:29:33.653Z,10.75
2019-05-10T16:32:06.824Z,10.00
2019-05-10T16:34:40.569Z,11.80
2019-05-10T16:37:14.271Z,9.00
2019-05-10T16:39:47.980Z,8.75
2019-05-10T16:42:21.822Z,5.25
2019-05-10T16:44:55.595Z,9.00
2019-05-10T16:47:29.321Z,9.00
2019-05-10T16:50:07.194Z,8.75
2019-05-10T16:52:40.886Z,9.50
2019-05-10T16:55:14.593Z,9.40
2019-05-10T16:57:48.297Z,10.50
2019-05-10T17:00:22.287Z,6.50
2019-05-10T17:02:56.001Z,12.25
2019-05-10T17:05:29.709Z,8.80
2019-05-10T17:08:03.401Z,8.00
2019-05-10T17:10:37.135Z,9.50
2019-05-10T17:13:10.825Z,10.00
2019-05-10T17:15:44.534Z,8.00
2019-05-10T17:18:19.966Z,9.50
2019-05-10T17:20:53.688Z,10.00
2019-05-10T17:23:27.391Z,10.00
2019-05-10T17:26:01.118Z,7.75
2019-05-10T17:28:37.256Z,9.00
2019-05-10T17:31:10.246Z,10.00
2019-05-10T17:33:44.382Z,9.00
2019-05-10T17:36:19.885Z,10.00
2019-05-10T17:38:55.486Z,10.50
2019-05-10T17:41:28.978Z,9.00
2019-05-10T17:44:02.715Z,9.00
2019-05-10T17:46:36.404Z,9.00
2019-05-10T17:49:10.130Z,5.50
2019-05-10T17:51:43.853Z,7.40
2019-05-10T17:54:17.543Z,9.20
2019-05-10T17:56:51.255Z,10.25
2019-05-10T17:59:24.961Z,8.00
2019-05-10T18:01:58.672Z,7.50
2019-05-10T18:04:32.353Z,9.75
2019-05-10T18:07:06.088Z,9.80
2019-05-10T18:09:39.789Z,8.25
2019-05-10T18:14:55.959Z,7.00
2019-05-10T18:17:27.710Z,6.25
2019-05-10T18:20:02.377Z,8.75
2019-05-10T18:22:43.471Z,8.00
2019-05-10T18:25:19.429Z,7.25
2019-05-10T18:27:47.157Z,8.25
2019-05-10T18:30:20.867Z,7.50
2019-05-10T18:32:54.569Z,6.75
2019-05-10T18:35:28.259Z,9.00
2019-05-10T18:38:02.014Z,5.80
2019-05-10T18:40:35.712Z,7.00
2019-05-10T18:43:09.381Z,6.25
2019-05-10T18:45:43.083Z,6.80
2019-05-10T18:48:16.829Z,7.00
2019-05-10T18:50:50.561Z,7.00
2019-05-10T18:53:24.279Z,6.00
2019-05-10T18:55:57.988Z,5.00
2019-05-10T18:58:31.759Z,5.00
2019-05-10T19:01:05.446Z,6.75
2019-05-10T19:03:39.174Z,9.20
2019-05-10T19:06:13.569Z,7.20
2019-05-10T19:08:47.545Z,7.60
2019-05-10T19:11:21.352Z,9.00
2019-05-10T19:13:55.180Z,8.80
2019-05-10T19:16:32.139Z,12.00
2019-05-10T19:19:04.360Z,9.40
2019-05-10T19:21:38.363Z,13.00
2019-05-10T19:24:12.277Z,9.80
2019-05-10T19:26:45.978Z,8.50
2019-05-10T19:29:19.691Z,11.25
2019-05-10T19:31:53.406Z,9.40
2019-05-10T19:34:27.124Z,10.50
2019-05-10T19:37:00.835Z,12.00
2019-05-10T19:39:34.588Z,8.75
2019-05-10T19:42:08.337Z,12.20
2019-05-10T19:44:42.287Z,13.75
2019-05-10T19:47:17.625Z,13.00
2019-05-10T19:49:53.297Z,14.50
2019-05-10T19:52:27.884Z,12.75
2019-05-10T19:55:01.690Z,16.00
2019-05-10T19:57:35.411Z,12.40
2019-05-10T20:00:09.109Z,14.00
2019-05-10T20:02:42.821Z,14.00
2019-05-10T20:05:16.538Z,14.20
2019-05-10T20:07:50.269Z,13.50
2019-05-10T20:10:23.990Z,14.25
2019-05-10T20:12:57.729Z,13.75
2019-05-10T20:15:31.429Z,15.60
2019-05-10T20:18:05.477Z,11.75
2019-05-10T20:20:39.361Z,12.40
2019-05-10T20:23:13.735Z,11.20
2019-05-10T20:25:47.451Z,13.00
2019-05-10T20:28:21.170Z,11.25
2019-05-10T20:30:54.897Z,12.25
2019-05-10T20:33:28.591Z,8.50
2019-05-10T20:36:02.292Z,13.75
2019-05-10T20:38:36.009Z,12.50
2019-05-10T20:41:09.708Z,10.75
2019-05-10T20:43:43.423Z,12.80
2019-05-10T20:46:17.143Z,12.00
2019-05-10T20:48:50.867Z,12.00
2019-05-10T20:51:24.580Z,12.20
2019-05-10T20:53:58.283Z,13.00
2019-05-10T20:56:32.012Z,13.00
2019-05-10T20:59:05.730Z,13.40
2019-05-10T21:01:39.452Z,12.75
2019-05-10T21:04:13.144Z,14.25
2019-05-10T21:06:46.839Z,13.25
2019-05-10T21:09:20.547Z,13.00
2019-05-10T21:11:54.274Z,13.00
2019-05-10T21:14:28.072Z,14.50
2019-05-10T21:17:01.796Z,15.00
2019-05-10T21:19:35.530Z,11.50
2019-05-10T21:22:09.231Z,13.25
2019-05-10T21:24:42.938Z,12.80
2019-05-10T21:27:22.533Z,13.75
2019-05-10T21:29:52.621Z,12.00
2019-05-10T21:32:28.960Z,10.00
2019-05-10T21:35:02.678Z,12.25
2019-05-10T21:37:36.474Z,12.75
2019-05-10T21:40:10.204Z,12.00
2019-05-10T21:42:43.899Z,11.00
2019-05-10T21:45:17.626Z,11.40
2019-05-10T21:47:52.082Z,11.25
2019-05-10T21:50:25.940Z,10.25
2019-05-10T21:52:59.669Z,10.00
2019-05-10T21:55:33.382Z,9.25
2019-05-10T21:58:07.080Z,9.50
2019-05-10T22:00:40.795Z,12.50
2019-05-10T22:03:14.508Z,10.75
2019-05-10T22:05:48.215Z,9.50
2019-05-10T22:08:21.955Z,11.25
2019-05-10T22:10:55.687Z,9.00
2019-05-10T22:13:29.560Z,9.25
2019-05-10T22:16:03.248Z,8.75
2019-05-10T22:18:36.984Z,9.40
2019-05-10T22:21:10.697Z,10.00
2019-05-10T22:23:44.411Z,10.25
2019-05-10T22:26:18.130Z,11.00
2019-05-10T22:28:51.836Z,9.50
2019-05-10T22:31:25.552Z,9.25
2019-05-10T22:33:59.229Z,9.25
2019-05-10T22:36:32.938Z,8.00
2019-05-10T22:39:07.762Z,10.50
2019-05-10T22:41:41.771Z,9.75
2019-05-10T22:44:15.512Z,10.75
2019-05-10T22:46:49.223Z,9.00
2019-05-10T22:49:22.940Z,13.25
2019-05-10T22:51:56.675Z,11.00
2019-05-10T22:54:30.734Z,13.50
2019-05-10T22:57:04.458Z,14.00
2019-05-10T22:59:38.150Z,11.40
2019-05-10T23:02:11.867Z,6.75
2019-05-10T23:04:45.566Z,13.00
2019-05-10T23:07:19.365Z,12.80
2019-05-10T23:09:53.082Z,9.00
2019-05-10T23:12:26.796Z,10.50
2019-05-10T23:15:00.515Z,14.00
2019-05-10T23:17:34.228Z,11.00
2019-05-10T23:20:07.940Z,8.50
2019-05-10T23:22:41.629Z,12.25
2019-05-10T23:25:15.322Z,13.00
2019-05-10T23:27:49.074Z,13.00
2019-05-10T23:30:22.863Z,11.25
2019-05-10T23:32:56.579Z,11.50
2019-05-10T23:35:30.310Z,12.00
2019-05-10T23:38:04.017Z,10.75
2019-05-10T23:40:37.730Z,13.00
2019-05-10T23:43:11.451Z,11.20
2019-05-10T23:45:45.150Z,13.00
2019-05-10T23:48:18.889Z,12.50
2019-05-10T23:50:52.608Z,14.00
2019-05-10T23:53:26.340Z,13.00
2019-05-10T23:56:00.062Z,13.75
2019-05-10T23:58:33.792Z,13.50
